Terminal Aerodrome Forecast
Issued by NWS Spokane, WA

Home | Current Version | Previous Version | Text Only | Print | Product List | Glossary On
Versions: 1 2 3 4 5 6 7 8 9 10 11 12 13 14 15 16 17 18 19 20 21 22 23 24 25 26
015
FTUS46 KOTX 231739
TAFLWS
TAF
KLWS 231739Z 2318/2418 09007KT P6SM SCT120 OVC200
     FM232200 12008KT P6SM VCSH OVC060
     FM232330 12011KT P6SM -RA SCT029 OVC060
     FM240600 14012KT P6SM VCSH SCT025 OVC050
      TEMPO 2406/2410 -RA SCT020 OVC035=

USA.gov is the U.S. government's official web portal to all federal, state and local government web resources and services.